createdAt,value
2019-02-12T00:01:54.033Z,22.17
2019-02-12T00:04:24.296Z,21.40
2019-02-12T00:06:54.801Z,19.77
2019-02-12T00:09:25.349Z,20.73
2019-02-12T00:11:55.846Z,20.90
2019-02-12T00:14:26.178Z,20.33
2019-02-12T00:16:56.465Z,21.57
2019-02-12T00:19:27.471Z,20.97
2019-02-12T00:21:57.811Z,20.80
2019-02-12T00:24:28.426Z,20.00
2019-02-12T00:26:58.631Z,24.23
2019-02-12T00:29:29.225Z,20.80
2019-02-12T00:31:59.482Z,24.70
2019-02-12T00:34:29.816Z,23.37
2019-02-12T00:37:00.085Z,24.10
2019-02-12T00:39:30.739Z,21.83
2019-02-12T00:42:01.046Z,23.20
2019-02-12T00:44:31.516Z,18.73
2019-02-12T00:47:01.767Z,17.87
2019-02-12T00:49:33.487Z,20.83
2019-02-12T00:52:03.645Z,24.13
2019-02-12T00:54:34.556Z,19.60
2019-02-12T00:57:04.783Z,16.87
2019-02-12T00:59:35.130Z,15.03
2019-02-12T01:02:05.440Z,19.10
2019-02-12T01:04:35.926Z,17.07
2019-02-12T01:07:06.185Z,14.77
2019-02-12T01:09:36.787Z,15.70
2019-02-12T01:12:07.061Z,16.63
2019-02-12T01:14:37.538Z,18.40
2019-02-12T01:17:07.774Z,17.57
2019-02-12T01:19:38.893Z,15.03
2019-02-12T01:22:09.157Z,16.80
2019-02-12T01:24:39.653Z,16.23
2019-02-12T01:27:09.887Z,14.83
2019-02-12T01:29:40.399Z,14.97
2019-02-12T01:32:10.728Z,11.90
2019-02-12T01:34:41.043Z,12.47
2019-02-12T01:37:11.255Z,11.97
2019-02-12T01:39:41.505Z,12.33
2019-02-12T01:42:16.117Z,8.20
2019-02-12T01:44:46.417Z,9.27
2019-02-12T01:47:16.852Z,6.93
2019-02-12T01:49:47.911Z,8.70
2019-02-12T01:52:18.311Z,8.70
2019-02-12T01:54:48.523Z,8.50
2019-02-12T01:57:18.750Z,7.20
2019-02-12T01:59:50.427Z,7.30
2019-02-12T02:02:20.743Z,6.97
2019-02-12T02:04:51.485Z,6.97
2019-02-12T02:07:21.585Z,6.27
2019-02-12T02:09:51.875Z,7.07
2019-02-12T02:12:22.177Z,7.77
2019-02-12T02:14:52.397Z,7.03
2019-02-12T02:17:22.825Z,6.77
2019-02-12T02:19:53.507Z,8.17
2019-02-12T02:22:24.063Z,5.60
2019-02-12T02:24:54.345Z,7.40
2019-02-12T02:27:25.017Z,8.40
2019-02-12T02:29:55.533Z,4.97
2019-02-12T02:32:26.279Z,5.30
2019-02-12T02:34:56.503Z,8.70
2019-02-12T02:37:26.792Z,6.90
2019-02-12T02:39:57.068Z,4.80
2019-02-12T02:42:27.582Z,3.87
2019-02-12T02:44:57.843Z,5.70
2019-02-12T02:47:28.100Z,5.17
2019-02-12T02:50:00.407Z,5.30
2019-02-12T02:52:30.666Z,7.07
2019-02-12T02:55:02.388Z,6.87
2019-02-12T02:57:32.650Z,4.47
2019-02-12T03:00:03.444Z,6.70
2019-02-12T03:02:34.052Z,5.77
2019-02-12T03:05:04.994Z,5.30
2019-02-12T03:07:35.272Z,5.63
2019-02-12T03:10:05.866Z,4.90
2019-02-12T03:12:36.130Z,3.70
2019-02-12T03:15:09.113Z,3.63
2019-02-12T03:17:39.390Z,5.70
2019-02-12T03:20:11.682Z,5.90
2019-02-12T03:22:41.914Z,3.97
2019-02-12T03:25:12.789Z,3.73
2019-02-12T03:27:43.042Z,3.03
2019-02-12T03:30:13.828Z,3.17
2019-02-12T03:32:44.031Z,1.20
2019-02-12T03:35:14.304Z,4.07
2019-02-12T03:37:44.564Z,6.50
2019-02-12T03:40:14.990Z,2.40
2019-02-12T03:42:45.417Z,3.33
2019-02-12T03:45:16.042Z,3.43
2019-02-12T03:47:46.279Z,3.50
2019-02-12T03:50:18.432Z,2.67
2019-02-12T03:52:48.702Z,6.10
2019-02-12T03:55:19.382Z,5.43
2019-02-12T03:57:51.121Z,4.43
2019-02-12T04:00:21.579Z,3.30
2019-02-12T04:03:20.188Z,2.93
2019-02-12T04:05:50.759Z,3.40
2019-02-12T04:08:21.058Z,3.87
2019-02-12T04:10:51.316Z,3.27
2019-02-12T04:13:21.902Z,4.63
2019-02-12T04:15:52.117Z,3.70
2019-02-12T04:18:22.337Z,7.23
2019-02-12T04:20:53.853Z,3.73
2019-02-12T04:23:24.091Z,4.50
2019-02-12T04:25:54.321Z,5.13
2019-02-12T04:28:24.838Z,2.30
2019-02-12T04:30:55.085Z,7.70
2019-02-12T04:33:25.341Z,8.10
2019-02-12T04:35:55.813Z,3.87
2019-02-12T04:38:26.063Z,2.90
2019-02-12T04:40:56.325Z,4.03
2019-02-12T04:43:26.637Z,3.20
2019-02-12T04:45:56.851Z,7.27
2019-02-12T04:48:28.145Z,4.13
2019-02-12T04:51:00.110Z,5.47
2019-02-12T04:53:30.369Z,5.40
2019-02-12T04:56:00.978Z,6.13
2019-02-12T04:58:32.399Z,7.07
2019-02-12T05:01:02.958Z,3.60
2019-02-12T05:03:33.173Z,5.43
2019-02-12T05:06:03.704Z,6.73
2019-02-12T05:09:14.871Z,8.03
2019-02-12T05:11:48.994Z,4.57
2019-02-12T05:14:19.214Z,5.83
2019-02-12T05:16:49.737Z,4.73
2019-02-12T05:19:20.016Z,4.30
2019-02-12T05:21:50.809Z,3.30
2019-02-12T05:24:21.049Z,6.40
2019-02-12T05:26:51.983Z,5.47
2019-02-12T05:29:22.225Z,8.77
2019-02-12T05:31:52.471Z,2.77
2019-02-12T05:34:22.999Z,3.93
2019-02-12T05:36:53.245Z,5.67
2019-02-12T05:39:23.524Z,5.80
2019-02-12T05:41:54.112Z,4.37
2019-02-12T05:44:24.412Z,6.73
2019-02-12T05:46:54.869Z,6.20
2019-02-12T05:49:25.117Z,8.83
2019-02-12T05:51:57.150Z,6.50
2019-02-12T05:54:27.423Z,4.23
2019-02-12T05:56:57.817Z,7.97
2019-02-12T05:59:28.064Z,6.63
2019-02-12T06:01:58.363Z,10.20
2019-02-12T06:04:28.761Z,6.83
2019-02-12T06:06:59.357Z,7.40
2019-02-12T06:09:29.614Z,8.47
2019-02-12T06:12:00.159Z,11.90
2019-02-12T06:14:30.528Z,4.73
2019-02-12T06:17:01.213Z,9.60
2019-02-12T06:19:31.499Z,11.93
2019-02-12T06:22:02.599Z,10.73
2019-02-12T06:24:32.787Z,8.87
2019-02-12T06:27:03.279Z,7.20
2019-02-12T06:29:33.529Z,12.83
2019-02-12T06:32:04.114Z,9.83
2019-02-12T06:34:34.546Z,9.53
2019-02-12T06:37:05.174Z,7.33
2019-02-12T06:39:35.341Z,7.60
2019-02-12T06:42:06.042Z,12.17
2019-02-12T06:44:36.351Z,10.70
2019-02-12T06:47:06.601Z,7.33
2019-02-12T06:49:38.152Z,10.03
2019-02-12T06:52:09.758Z,13.77
2019-02-12T06:54:41.304Z,9.57
2019-02-12T06:57:11.520Z,10.27
2019-02-12T06:59:42.053Z,14.27
2019-02-12T07:02:49.255Z,10.97
2019-02-12T07:05:19.694Z,10.13
2019-02-12T07:08:33.962Z,12.13
2019-02-12T07:11:11.628Z,14.40
2019-02-12T07:14:18.180Z,10.00
2019-02-12T07:17:54.154Z,10.00
2019-02-12T07:20:48.641Z,9.80
2019-02-12T07:24:03.419Z,14.90
2019-02-12T07:27:23.573Z,7.90
2019-02-12T07:30:43.282Z,11.60
2019-02-12T07:33:48.954Z,13.60
2019-02-12T07:36:58.938Z,8.60
2019-02-12T07:40:16.268Z,9.77
2019-02-12T07:43:28.031Z,10.53
2019-02-12T07:46:27.417Z,10.90
2019-02-12T07:49:20.513Z,11.90
2019-02-12T07:52:13.959Z,9.23
2019-02-12T07:55:00.014Z,12.37
2019-02-12T07:58:17.261Z,15.00
2019-02-12T08:01:16.225Z,7.53
2019-02-12T08:04:23.644Z,10.10
2019-02-12T08:07:44.477Z,8.70
2019-02-12T08:10:47.254Z,8.07
2019-02-12T08:13:57.429Z,15.73
2019-02-12T08:17:10.958Z,9.37
2019-02-12T08:20:21.103Z,6.33
2019-02-12T08:23:59.935Z,13.60
2019-02-12T08:26:55.861Z,5.30
2019-02-12T08:29:44.725Z,6.23
2019-02-12T08:32:47.940Z,11.67
2019-02-12T08:36:02.935Z,9.70
2019-02-12T08:38:48.887Z,6.03
2019-02-12T08:42:21.636Z,7.70
2019-02-12T08:45:48.829Z,11.83
2019-02-12T08:48:29.168Z,8.67
2019-02-12T08:51:34.735Z,10.30
2019-02-12T08:54:35.973Z,16.43
2019-02-12T08:57:39.522Z,8.20
2019-02-12T09:00:40.767Z,9.57
2019-02-12T09:03:52.372Z,6.57
2019-02-12T09:06:49.097Z,7.70
2019-02-12T09:09:55.246Z,10.00
2019-02-12T09:13:05.565Z,4.33
2019-02-12T09:16:04.295Z,9.00
2019-02-12T09:18:52.989Z,9.23
2019-02-12T09:21:57.615Z,7.00
2019-02-12T09:24:40.771Z,5.43
2019-02-12T09:27:39.311Z,6.50
2019-02-12T09:30:53.825Z,11.87
2019-02-12T09:34:16.760Z,5.20
2019-02-12T09:37:09.869Z,7.00
2019-02-12T09:39:58.575Z,2.93
2019-02-12T09:43:07.600Z,5.20
2019-02-12T09:46:11.058Z,7.07
2019-02-12T09:48:48.359Z,4.67
2019-02-12T09:51:52.286Z,7.23
2019-02-12T09:54:54.144Z,8.00
2019-02-12T09:57:49.484Z,8.47
2019-02-12T10:00:43.326Z,6.00
2019-02-12T10:03:36.798Z,9.13
2019-02-12T10:06:53.803Z,8.90
2019-02-12T10:10:07.254Z,7.27
2019-02-12T10:12:41.990Z,9.43
2019-02-12T10:15:48.428Z,10.57
2019-02-12T10:18:53.770Z,5.17
2019-02-12T10:22:10.324Z,12.03
2019-02-12T10:25:11.046Z,5.37
2019-02-12T10:28:19.036Z,7.60
2019-02-12T10:31:12.978Z,4.00
2019-02-12T10:33:43.474Z,5.17
2019-02-12T10:36:13.686Z,8.17
2019-02-12T10:38:44.490Z,8.10
2019-02-12T10:41:14.728Z,6.27
2019-02-12T10:43:45.197Z,7.50
2019-02-12T10:46:15.440Z,8.97
2019-02-12T10:48:45.888Z,5.93
2019-02-12T10:51:16.244Z,7.03
2019-02-12T10:53:46.590Z,7.93
2019-02-12T10:56:17.270Z,13.47
2019-02-12T10:58:49.478Z,9.60
2019-02-12T11:01:20.148Z,10.23
2019-02-12T11:03:50.370Z,5.40
2019-02-12T11:06:20.926Z,7.30
2019-02-12T11:08:51.184Z,5.93
2019-02-12T11:11:21.685Z,3.53
2019-02-12T11:13:53.124Z,6.03
2019-02-12T11:16:23.663Z,6.30
2019-02-12T11:18:53.889Z,5.27
2019-02-12T11:21:24.404Z,7.57
2019-02-12T11:23:54.698Z,5.43
2019-02-12T11:26:31.168Z,6.67
2019-02-12T11:29:01.456Z,9.37
2019-02-12T11:31:31.617Z,8.20
2019-02-12T11:34:01.885Z,5.67
2019-02-12T11:36:32.199Z,4.20
2019-02-12T11:39:02.446Z,5.77
2019-02-12T11:41:34.289Z,4.07
2019-02-12T11:44:05.313Z,5.37
2019-02-12T11:46:35.555Z,9.10
2019-02-12T11:49:06.375Z,6.23
2019-02-12T11:51:36.672Z,8.83
2019-02-12T11:54:07.423Z,5.27
2019-02-12T11:56:37.696Z,6.73
2019-02-12T11:59:09.177Z,9.57
2019-02-12T12:01:39.407Z,5.37
2019-02-12T12:04:09.883Z,5.00
2019-02-12T12:06:40.118Z,4.73
2019-02-12T12:09:10.383Z,9.53
2019-02-12T12:11:41.139Z,4.33
2019-02-12T12:14:11.395Z,4.40
2019-02-12T12:16:41.881Z,11.13
2019-02-12T12:19:13.301Z,7.67
2019-02-12T12:21:45.444Z,9.70
2019-02-12T12:24:15.747Z,6.50
2019-02-12T12:26:46.451Z,8.27
2019-02-12T12:29:17.052Z,12.10
2019-02-12T12:31:47.477Z,6.97
2019-02-12T12:34:17.740Z,6.47
2019-02-12T12:36:48.319Z,7.80
2019-02-12T12:39:18.569Z,8.37
2019-02-12T12:41:49.161Z,7.93
2019-02-12T12:44:19.343Z,4.83
2019-02-12T12:46:49.591Z,7.40
2019-02-12T12:49:21.221Z,10.53
2019-02-12T12:51:51.509Z,5.20
2019-02-12T12:54:22.285Z,4.07
2019-02-12T12:56:52.552Z,10.20
2019-02-12T12:59:25.184Z,7.80
2019-02-12T13:01:55.409Z,8.20
2019-02-12T13:04:26.230Z,9.77
2019-02-12T13:06:56.456Z,7.30
2019-02-12T13:09:26.995Z,9.47
2019-02-12T13:11:57.246Z,10.40
2019-02-12T13:14:31.035Z,10.33
2019-02-12T13:17:01.194Z,4.93
2019-02-12T13:19:31.671Z,8.50
2019-02-12T13:22:01.902Z,6.30
2019-02-12T13:24:32.374Z,9.10
2019-02-12T13:27:02.664Z,10.47
2019-02-12T13:29:33.985Z,13.43
2019-02-12T13:32:04.235Z,8.97
2019-02-12T13:34:34.746Z,9.83
2019-02-12T13:37:04.996Z,11.03
2019-02-12T13:39:35.491Z,14.73
2019-02-12T13:42:05.723Z,6.43
2019-02-12T13:44:36.247Z,11.40
2019-02-12T13:47:06.478Z,11.77
2019-02-12T13:49:37.000Z,8.03
2019-02-12T13:52:07.326Z,11.90
2019-02-12T13:54:37.570Z,10.73
2019-02-12T13:57:08.280Z,10.53
2019-02-12T13:59:39.940Z,7.70
2019-02-12T14:02:10.576Z,12.67
2019-02-12T14:04:40.866Z,11.53
2019-02-12T14:07:11.333Z,11.63
2019-02-12T14:09:41.654Z,8.20
2019-02-12T14:12:12.090Z,13.23
2019-02-12T14:14:42.352Z,9.07
2019-02-12T14:17:12.838Z,18.57
2019-02-12T14:19:43.156Z,8.00
2019-02-12T14:22:13.567Z,7.97
2019-02-12T14:24:43.822Z,8.43
2019-02-12T14:27:14.046Z,8.37
2019-02-12T14:29:44.870Z,9.40
2019-02-12T14:32:15.111Z,8.40
2019-02-12T14:34:45.374Z,13.40
2019-02-12T14:37:16.137Z,9.30
2019-02-12T14:39:46.370Z,12.70
2019-02-12T14:42:16.858Z,10.40
2019-02-12T14:44:47.266Z,10.80
2019-02-12T14:47:17.512Z,8.67
2019-02-12T14:49:48.222Z,9.20
2019-02-12T14:52:18.566Z,10.40
2019-02-12T14:54:49.235Z,9.27
2019-02-12T14:57:19.462Z,10.47
2019-02-12T14:59:51.628Z,9.73
2019-02-12T15:02:21.850Z,11.00
2019-02-12T15:05:00.285Z,6.40
2019-02-12T15:07:23.946Z,5.60
2019-02-12T15:09:54.537Z,13.37
2019-02-12T15:12:24.708Z,8.03
2019-02-12T15:14:55.286Z,7.07
2019-02-12T15:17:25.516Z,8.97
2019-02-12T15:19:56.362Z,9.40
2019-02-12T15:22:26.654Z,6.20
2019-02-12T15:24:57.231Z,7.90
2019-02-12T15:27:27.634Z,11.27
2019-02-12T15:29:58.472Z,8.17
2019-02-12T15:32:28.765Z,5.73
2019-02-12T15:34:59.230Z,8.73
2019-02-12T15:37:29.394Z,5.53
2019-02-12T15:39:59.987Z,5.27
2019-02-12T15:42:30.246Z,6.73
2019-02-12T15:45:00.618Z,4.77
2019-02-12T15:47:30.984Z,4.33
2019-02-12T15:50:01.500Z,5.27
2019-02-12T15:52:32.019Z,5.37
2019-02-12T15:55:02.271Z,4.37
2019-02-12T15:57:32.689Z,3.30
2019-02-12T16:00:08.142Z,4.90
2019-02-12T16:02:39.117Z,12.87
2019-02-12T16:05:12.463Z,5.43
2019-02-12T16:07:45.245Z,4.10
2019-02-12T16:10:17.616Z,12.13
2019-02-12T16:12:51.037Z,6.00
2019-02-12T16:15:24.018Z,4.57
2019-02-12T16:17:53.405Z,7.67
2019-02-12T16:20:23.844Z,9.73
2019-02-12T16:22:54.205Z,8.10
2019-02-12T16:25:24.444Z,8.60
2019-02-12T16:27:54.791Z,7.67
2019-02-12T16:30:25.117Z,10.33
2019-02-12T16:32:55.407Z,7.53
2019-02-12T16:35:26.037Z,5.50
2019-02-12T16:37:56.262Z,6.43
2019-02-12T16:40:26.559Z,6.67
2019-02-12T16:42:56.891Z,7.90
2019-02-12T16:45:31.531Z,5.00
2019-02-12T16:48:01.717Z,7.20
2019-02-12T16:50:32.407Z,5.77
2019-02-12T16:53:02.683Z,4.23
2019-02-12T16:55:33.375Z,3.23
2019-02-12T16:58:04.800Z,5.07
2019-02-12T17:00:36.604Z,5.57
2019-02-12T17:03:07.055Z,5.60
2019-02-12T17:05:37.634Z,5.60
2019-02-12T17:08:07.951Z,3.80
2019-02-12T17:10:38.696Z,4.47
2019-02-12T17:13:08.967Z,7.00
2019-02-12T17:15:39.579Z,4.73
2019-02-12T17:18:09.890Z,6.17
2019-02-12T17:20:40.578Z,7.10
2019-02-12T17:23:10.882Z,6.60
2019-02-12T17:25:41.561Z,6.03
2019-02-12T17:28:12.977Z,8.30
2019-02-12T17:30:44.867Z,9.37
2019-02-12T17:33:15.191Z,11.17
2019-02-12T17:35:45.567Z,10.53
2019-02-12T17:38:17.069Z,8.00
2019-02-12T17:40:47.541Z,9.30
2019-02-12T17:43:17.826Z,9.70
2019-02-12T17:45:48.206Z,9.43
2019-02-12T17:48:18.447Z,11.10
2019-02-12T17:50:49.034Z,9.10
2019-02-12T17:53:19.723Z,9.67
2019-02-12T17:55:50.407Z,9.73
2019-02-12T17:58:21.050Z,6.93
2019-02-12T18:00:53.273Z,8.53
2019-02-12T18:03:23.932Z,11.57
2019-02-12T18:05:54.639Z,8.93
2019-02-12T18:08:24.919Z,7.57
2019-02-12T18:10:55.391Z,10.50
2019-02-12T18:13:25.829Z,9.97
2019-02-12T18:15:56.635Z,8.00
2019-02-12T18:18:26.906Z,6.17
2019-02-12T18:20:57.540Z,9.03
2019-02-12T18:23:27.766Z,6.07
2019-02-12T18:25:58.666Z,10.07
2019-02-12T18:28:28.946Z,9.40
2019-02-12T18:31:00.772Z,7.87
2019-02-12T18:33:31.119Z,9.30
2019-02-12T18:36:01.603Z,10.13
2019-02-12T18:38:31.958Z,10.13
2019-02-12T18:41:02.343Z,9.03
2019-02-12T18:43:32.642Z,12.17
2019-02-12T18:46:03.100Z,13.47
2019-02-12T18:48:34.138Z,15.13
2019-02-12T18:51:04.740Z,13.27
2019-02-12T18:53:36.138Z,11.63
2019-02-12T18:56:07.075Z,14.63
2019-02-12T18:58:37.624Z,13.53
2019-02-12T19:01:09.968Z,10.83
2019-02-12T19:03:40.451Z,13.50
2019-02-12T19:06:11.262Z,10.80
2019-02-12T19:08:41.962Z,12.50
2019-02-12T19:11:12.701Z,8.17
2019-02-12T19:13:43.078Z,12.97
2019-02-12T19:16:13.756Z,10.20
2019-02-12T19:18:44.094Z,11.73
2019-02-12T19:21:14.430Z,10.37
2019-02-12T19:23:44.622Z,13.30
2019-02-12T19:26:15.268Z,13.73
2019-02-12T19:28:45.444Z,11.53
2019-02-12T19:31:16.290Z,11.37
2019-02-12T19:33:46.536Z,14.17
2019-02-12T19:36:17.377Z,13.30
2019-02-12T19:38:47.664Z,19.23
2019-02-12T19:41:18.042Z,14.97
2019-02-12T19:43:48.372Z,15.60
2019-02-12T19:46:18.699Z,17.60
2019-02-12T19:48:49.408Z,18.20
2019-02-12T19:51:19.747Z,19.40
2019-02-12T19:53:50.159Z,18.97
2019-02-12T19:56:20.447Z,23.30
2019-02-12T19:58:50.704Z,23.17
2019-02-12T20:01:22.107Z,29.33
2019-02-12T20:03:52.468Z,22.57
2019-02-12T20:06:22.734Z,28.57
2019-02-12T20:08:53.015Z,23.27
2019-02-12T20:11:25.137Z,25.93
2019-02-12T20:13:55.419Z,24.93
2019-02-12T20:16:27.075Z,25.93
2019-02-12T20:18:57.497Z,28.27
2019-02-12T20:21:28.201Z,28.50
2019-02-12T20:23:58.536Z,27.73
2019-02-12T20:26:29.229Z,26.63
2019-02-12T20:28:59.491Z,31.00
2019-02-12T20:31:31.972Z,26.53
2019-02-12T20:34:02.588Z,30.60
2019-02-12T20:36:33.774Z,31.67
2019-02-12T20:39:06.116Z,30.00
2019-02-12T20:41:38.524Z,26.97
2019-02-12T20:44:08.826Z,23.37
2019-02-12T20:46:39.612Z,34.10
2019-02-12T20:49:09.901Z,30.10
2019-02-12T20:51:40.623Z,30.10
2019-02-12T20:54:10.934Z,27.60
2019-02-12T20:56:41.394Z,25.87
2019-02-12T20:59:11.702Z,26.83
2019-02-12T21:01:43.698Z,22.03
2019-02-12T21:04:14.100Z,23.00
2019-02-12T21:06:44.750Z,30.67
2019-02-12T21:09:15.176Z,28.07
2019-02-12T21:11:45.784Z,30.10
2019-02-12T21:14:16.105Z,25.87
2019-02-12T21:16:47.750Z,33.13
2019-02-12T21:19:18.039Z,28.60
2019-02-12T21:21:48.552Z,29.77
2019-02-12T21:24:18.794Z,30.50
2019-02-12T21:26:49.259Z,28.70
2019-02-12T21:29:20.817Z,33.20
2019-02-12T21:31:51.832Z,29.63
2019-02-12T21:34:22.110Z,25.53
2019-02-12T21:36:52.552Z,26.20
2019-02-12T21:39:24.340Z,22.33
2019-02-12T21:41:55.308Z,29.43
2019-02-12T21:44:25.679Z,33.80
2019-02-12T21:46:56.251Z,27.37
2019-02-12T21:49:26.552Z,35.43
2019-02-12T21:51:57.018Z,33.73
2019-02-12T21:54:27.363Z,38.17
2019-02-12T21:56:57.775Z,39.67
2019-02-12T21:59:28.181Z,43.47
2019-02-12T22:01:59.866Z,44.43
2019-02-12T22:04:30.168Z,46.67
2019-02-12T22:07:01.103Z,55.70
2019-02-12T22:09:31.508Z,53.97
2019-02-12T22:12:02.771Z,51.73
2019-02-12T22:14:33.512Z,48.13
2019-02-12T22:17:05.479Z,52.93
2019-02-12T22:19:35.748Z,49.03
2019-02-12T22:22:06.550Z,51.00
2019-02-12T22:24:36.831Z,55.40
2019-02-12T22:27:07.368Z,52.83
2019-02-12T22:29:37.690Z,47.87
2019-02-12T22:32:08.710Z,48.37
2019-02-12T22:34:39.065Z,50.93
2019-02-12T22:37:09.630Z,52.87
2019-02-12T22:39:39.934Z,47.33
2019-02-12T22:42:10.844Z,47.53
2019-02-12T22:44:41.118Z,55.53
2019-02-12T22:47:11.729Z,61.37
2019-02-12T22:49:42.047Z,52.03
2019-02-12T22:52:13.768Z,53.97
2019-02-12T22:54:44.090Z,60.23
2019-02-12T22:57:14.416Z,52.87
2019-02-12T22:59:44.713Z,51.57
2019-02-12T23:02:17.098Z,52.17
2019-02-12T23:04:47.415Z,54.67
2019-02-12T23:07:18.122Z,54.13
2019-02-12T23:09:48.481Z,51.47
2019-02-12T23:12:18.831Z,48.87
2019-02-12T23:14:49.398Z,48.60
2019-02-12T23:17:19.725Z,46.30
2019-02-12T23:19:50.154Z,42.27
2019-02-12T23:22:20.432Z,46.30
2019-02-12T23:24:51.200Z,43.20
2019-02-12T23:27:21.553Z,46.13
2019-02-12T23:29:52.063Z,45.40
2019-02-12T23:32:22.359Z,54.70
2019-02-12T23:34:57.172Z,48.00
2019-02-12T23:37:24.816Z,47.73
2019-02-12T23:39:55.321Z,40.07
2019-02-12T23:42:25.623Z,43.03
2019-02-12T23:44:55.967Z,44.03
2019-02-12T23:47:26.455Z,56.03
2019-02-12T23:49:57.154Z,46.27
2019-02-12T23:52:29.155Z,45.87
2019-02-12T23:54:59.707Z,50.33
2019-02-12T23:57:29.976Z,49.10
